Burtonsville, New York
Current Conditions -  °F | °C
As of 3:15 PM on Friday 24 Oct 2014 (Local Time) from KNY0 Reporting Station
Overcast Overcast  
Wind Chill: 51°   Ceiling: 2700
Heat Index: 51°   Visibility: 10mi
Dew Point: 42°   Wind: 14mph
Humidity: 71%   Direction: 330°NNW
Pressure: 29.8"   Gusts: NA
Location:  42.7904°N, 74.3145°W
Report Text: KNY0 241915Z AUTO 33012KT 10SM OVC027 11/06 A2980 RMK AO2 T01060056
Loading
Personal Weather Stations






























Interactive Weather Map
Tropical Storm Tracking
New forecast layout! Learn more

10-Day Weather Forecast

Advertisements
Track Severe Weather on mobile